JST240 YSSY-YMML
Flight info
| Callsign | JST240 |
|---|---|
| Flight time | 1h 11m |
| Altitude | 38000 |
| Route | MARUB7/34R WOL H65 LEECE Q29 ML |
| Aircraft | A320/M-SDE3FGHIRWY/LB1 |
Departure
| Time | 2026-05-04 06:37 |
|---|---|
| Airport | Sydney Kingsford Smith International Airport (YSSY) |
Arrival
| Time | 2026-05-04 07:49 |
|---|---|
| Airport | Melbourne Airport (YMML) |
| Time | Latitude | Longitude | Altitude | Speed | Heading |
|---|---|---|---|---|---|
| 2026-05-04 05:04 | -33.93486 | 151.17771 | 30 ft | 0 kts | 280° |
| 2026-05-04 06:21 | -33.93501 | 151.17826 | 30 ft | 3 kts | 256° |
| 2026-05-04 06:21 | -33.93494 | 151.17845 | 30 ft | 4 kts | 193° |
| 2026-05-04 06:22 | -33.93488 | 151.17847 | 30 ft | 4 kts | 189° |
| 2026-05-04 06:22 | -33.93515 | 151.17841 | 30 ft | 4 kts | 189° |
| 2026-05-04 06:25 | -33.93607 | 151.17821 | 30 ft | 0 kts | 189° |
| 2026-05-04 06:28 | -33.93628 | 151.17817 | 30 ft | 6 kts | 191° |
| 2026-05-04 06:28 | -33.93681 | 151.17802 | 30 ft | 10 kts | 194° |
| 2026-05-04 06:28 | -33.93757 | 151.17779 | 30 ft | 13 kts | 194° |
| 2026-05-04 06:29 | -33.93838 | 151.17764 | 30 ft | 12 kts | 172° |
| 2026-05-04 06:29 | -33.93929 | 151.17787 | 28 ft | 15 kts | 167° |
| 2026-05-04 06:29 | -33.94034 | 151.17815 | 29 ft | 16 kts | 167° |
| 2026-05-04 06:29 | -33.94151 | 151.17845 | 30 ft | 18 kts | 168° |
| 2026-05-04 06:30 | -33.94278 | 151.17877 | 30 ft | 19 kts | 168° |
| 2026-05-04 06:30 | -33.94416 | 151.17912 | 30 ft | 20 kts | 169° |
| 2026-05-04 06:30 | -33.94511 | 151.17880 | 30 ft | 13 kts | 178° |
| 2026-05-04 06:30 | -33.94608 | 151.17904 | 30 ft | 15 kts | 168° |
| 2026-05-04 06:31 | -33.94718 | 151.17933 | 30 ft | 17 kts | 168° |
| 2026-05-04 06:31 | -33.94841 | 151.17965 | 30 ft | 19 kts | 168° |
| 2026-05-04 06:31 | -33.94977 | 151.18000 | 30 ft | 21 kts | 168° |
| 2026-05-04 06:31 | -33.95075 | 151.18028 | 30 ft | 12 kts | 155° |
| 2026-05-04 06:32 | -33.95095 | 151.18123 | 30 ft | 14 kts | 78° |
| 2026-05-04 06:33 | -33.95576 | 151.18788 | 28 ft | 25 kts | 167° |
| 2026-05-04 06:34 | -33.95749 | 151.18833 | 28 ft | 27 kts | 168° |
| 2026-05-04 06:34 | -33.95940 | 151.18882 | 29 ft | 28 kts | 168° |
| 2026-05-04 06:34 | -33.96140 | 151.18934 | 28 ft | 31 kts | 168° |
| 2026-05-04 06:34 | -33.96355 | 151.18990 | 28 ft | 33 kts | 167° |
| 2026-05-04 06:35 | -33.96567 | 151.19044 | 28 ft | 27 kts | 167° |
| 2026-05-04 06:36 | -33.96997 | 151.19356 | 25 ft | 22 kts | 348° |
| 2026-05-04 06:37 | -33.96608 | 151.19257 | 24 ft | 92 kts | 347° |
| 2026-05-04 06:37 | -33.95821 | 151.19054 | 31 ft | 138 kts | 347° |
| 2026-05-04 06:37 | -33.94846 | 151.18797 | 534 ft | 141 kts | 351° |
| 2026-05-04 06:37 | -33.93874 | 151.18851 | 1094 ft | 144 kts | 22° |
| 2026-05-04 06:38 | -33.93081 | 151.19590 | 1717 ft | 150 kts | 48° |
| 2026-05-04 06:38 | -33.92703 | 151.20875 | 1988 ft | 185 kts | 85° |
| 2026-05-04 06:40 | -33.93543 | 151.33656 | 4848 ft | 284 kts | 84° |
| 2026-05-04 06:40 | -33.93496 | 151.36023 | 5649 ft | 289 kts | 84° |
| 2026-05-04 06:40 | -33.93460 | 151.38463 | 6515 ft | 294 kts | 84° |
| 2026-05-04 06:40 | -33.93517 | 151.40975 | 7360 ft | 301 kts | 96° |
| 2026-05-04 06:41 | -33.94254 | 151.43359 | 8218 ft | 309 kts | 121° |
| 2026-05-04 06:41 | -33.95704 | 151.45266 | 9099 ft | 311 kts | 145° |
| 2026-05-04 06:41 | -33.97667 | 151.46283 | 9937 ft | 310 kts | 174° |
| 2026-05-04 06:41 | -33.99817 | 151.46198 | 10512 ft | 311 kts | 199° |
| 2026-05-04 06:42 | -34.01780 | 151.45111 | 10893 ft | 319 kts | 222° |
| 2026-05-04 06:42 | -34.03452 | 151.43233 | 11002 ft | 339 kts | 230° |
| 2026-05-04 06:42 | -34.05146 | 151.41119 | 11132 ft | 362 kts | 231° |
| 2026-05-04 06:44 | -34.18785 | 151.24410 | 14452 ft | 415 kts | 230° |
| 2026-05-04 06:44 | -34.20830 | 151.21929 | 14983 ft | 418 kts | 230° |
| 2026-05-04 06:44 | -34.22888 | 151.19428 | 15497 ft | 421 kts | 230° |
| 2026-05-04 06:45 | -34.24958 | 151.16905 | 15995 ft | 424 kts | 230° |
| 2026-05-04 06:45 | -34.27042 | 151.14357 | 16508 ft | 427 kts | 230° |
| 2026-05-04 06:45 | -34.29135 | 151.11796 | 17007 ft | 430 kts | 230° |
| 2026-05-04 06:45 | -34.31249 | 151.09208 | 17512 ft | 434 kts | 230° |
| 2026-05-04 06:46 | -34.33353 | 151.06639 | 18016 ft | 437 kts | 230° |
| 2026-05-04 06:46 | -34.35500 | 151.04018 | 18481 ft | 440 kts | 230° |
| 2026-05-04 06:46 | -34.37661 | 151.01378 | 18962 ft | 442 kts | 230° |
| 2026-05-04 06:46 | -34.39825 | 150.98730 | 19443 ft | 443 kts | 231° |
| 2026-05-04 06:48 | -34.55190 | 150.79833 | 22370 ft | 455 kts | 233° |
| 2026-05-04 06:48 | -34.57161 | 150.76862 | 22720 ft | 451 kts | 239° |
| 2026-05-04 06:49 | -34.59016 | 150.73781 | 23102 ft | 453 kts | 239° |
| 2026-05-04 06:50 | -34.72102 | 150.52041 | 25940 ft | 453 kts | 240° |
| 2026-05-04 06:51 | -34.73950 | 150.48946 | 26394 ft | 453 kts | 240° |
| 2026-05-04 06:51 | -34.75799 | 150.45857 | 26880 ft | 452 kts | 240° |
| 2026-05-04 06:51 | -34.77652 | 150.42763 | 27326 ft | 451 kts | 240° |
| 2026-05-04 06:51 | -34.79490 | 150.39687 | 27760 ft | 451 kts | 240° |
| 2026-05-04 06:52 | -34.81331 | 150.36600 | 28186 ft | 452 kts | 240° |
| 2026-05-04 06:52 | -34.83179 | 150.33501 | 28637 ft | 452 kts | 240° |
| 2026-05-04 06:52 | -34.85025 | 150.30407 | 29062 ft | 452 kts | 240° |
| 2026-05-04 06:52 | -34.86873 | 150.27310 | 29543 ft | 452 kts | 240° |
| 2026-05-04 06:53 | -34.88719 | 150.24217 | 30063 ft | 451 kts | 240° |
| 2026-05-04 06:53 | -34.90555 | 150.21136 | 30558 ft | 448 kts | 240° |
| 2026-05-04 06:53 | -34.92378 | 150.18072 | 31048 ft | 445 kts | 241° |
| 2026-05-04 06:53 | -34.94188 | 150.15027 | 31582 ft | 442 kts | 242° |
| 2026-05-04 06:54 | -34.95981 | 150.12012 | 32165 ft | 437 kts | 242° |
| 2026-05-04 06:54 | -34.97754 | 150.09024 | 32748 ft | 433 kts | 242° |
| 2026-05-04 06:54 | -34.99510 | 150.06056 | 33253 ft | 430 kts | 243° |
| 2026-05-04 06:54 | -35.01256 | 150.03108 | 33791 ft | 427 kts | 243° |
| 2026-05-04 06:55 | -35.02987 | 150.00183 | 34292 ft | 424 kts | 243° |
| 2026-05-04 06:55 | -35.04706 | 149.97272 | 34744 ft | 421 kts | 243° |
| 2026-05-04 06:55 | -35.06411 | 149.94381 | 35164 ft | 419 kts | 243° |
| 2026-05-04 06:55 | -35.08111 | 149.91501 | 35571 ft | 417 kts | 243° |
| 2026-05-04 06:56 | -35.09800 | 149.88634 | 35958 ft | 415 kts | 243° |
| 2026-05-04 06:57 | -35.21554 | 149.68614 | 38000 ft | 414 kts | 243° |
| 2026-05-04 06:58 | -35.24919 | 149.62833 | 38007 ft | 419 kts | 243° |
| 2026-05-04 06:58 | -35.28318 | 149.57025 | 38022 ft | 421 kts | 243° |
| 2026-05-04 06:59 | -35.31733 | 149.51184 | 38026 ft | 422 kts | 243° |
| 2026-05-04 06:59 | -35.35151 | 149.45329 | 38037 ft | 422 kts | 243° |
| 2026-05-04 07:01 | -35.48795 | 149.21806 | 38047 ft | 424 kts | 243° |
| 2026-05-04 07:02 | -35.52205 | 149.15903 | 38040 ft | 424 kts | 243° |
| 2026-05-04 07:02 | -35.55614 | 149.09989 | 38028 ft | 424 kts | 243° |
| 2026-05-04 07:03 | -35.58443 | 149.05063 | 38025 ft | 425 kts | 243° |
| 2026-05-04 07:03 | -35.61852 | 148.99136 | 38030 ft | 425 kts | 243° |
| 2026-05-04 07:04 | -35.65264 | 148.93189 | 38018 ft | 426 kts | 243° |
| 2026-05-04 07:04 | -35.68676 | 148.87226 | 38026 ft | 426 kts | 243° |
| 2026-05-04 07:05 | -35.72088 | 148.81265 | 38023 ft | 426 kts | 244° |
| 2026-05-04 07:05 | -35.75492 | 148.75301 | 38014 ft | 426 kts | 243° |
| 2026-05-04 07:06 | -35.80596 | 148.66327 | 38031 ft | 426 kts | 244° |
| 2026-05-04 07:07 | -35.83999 | 148.60347 | 38036 ft | 426 kts | 244° |
| 2026-05-04 07:09 | -35.97590 | 148.36265 | 38046 ft | 429 kts | 244° |
| 2026-05-04 07:09 | -36.00986 | 148.30206 | 38055 ft | 430 kts | 244° |
| 2026-05-04 07:10 | -36.04394 | 148.24134 | 38043 ft | 430 kts | 244° |
| 2026-05-04 07:12 | -36.18020 | 147.99752 | 38057 ft | 432 kts | 244° |
| 2026-05-04 07:12 | -36.21444 | 147.93636 | 38050 ft | 432 kts | 244° |
| 2026-05-04 07:13 | -36.24855 | 147.87515 | 38067 ft | 431 kts | 244° |
| 2026-05-04 07:13 | -36.28248 | 147.81389 | 38073 ft | 431 kts | 244° |
| 2026-05-04 07:14 | -36.36734 | 147.66055 | 38046 ft | 431 kts | 244° |
| 2026-05-04 07:15 | -36.40122 | 147.59909 | 38057 ft | 432 kts | 244° |
| 2026-05-04 07:15 | -36.43510 | 147.53747 | 38045 ft | 432 kts | 244° |
| 2026-05-04 07:16 | -36.46897 | 147.47568 | 38035 ft | 433 kts | 244° |
| 2026-05-04 07:16 | -36.50296 | 147.41380 | 38027 ft | 433 kts | 244° |
| 2026-05-04 07:17 | -36.53688 | 147.35181 | 38041 ft | 433 kts | 244° |
| 2026-05-04 07:17 | -36.57074 | 147.28972 | 38030 ft | 434 kts | 244° |
| 2026-05-04 07:18 | -36.60464 | 147.22743 | 38025 ft | 435 kts | 244° |
| 2026-05-04 07:18 | -36.63861 | 147.16508 | 38023 ft | 435 kts | 244° |
| 2026-05-04 07:19 | -36.67257 | 147.10267 | 38061 ft | 435 kts | 244° |
| 2026-05-04 07:19 | -36.70649 | 147.04013 | 38045 ft | 435 kts | 244° |
| 2026-05-04 07:20 | -36.74031 | 146.97744 | 38033 ft | 436 kts | 244° |
| 2026-05-04 07:20 | -36.77414 | 146.91473 | 38020 ft | 436 kts | 244° |
| 2026-05-04 07:22 | -36.90928 | 146.66338 | 38025 ft | 436 kts | 244° |
| 2026-05-04 07:23 | -36.94296 | 146.60048 | 38028 ft | 435 kts | 244° |
| 2026-05-04 07:23 | -36.97658 | 146.53731 | 37731 ft | 437 kts | 244° |
| 2026-05-04 07:24 | -36.99340 | 146.50570 | 37468 ft | 437 kts | 244° |
| 2026-05-04 07:24 | -37.01027 | 146.47409 | 37201 ft | 437 kts | 244° |
| 2026-05-04 07:24 | -37.02717 | 146.44245 | 36950 ft | 438 kts | 244° |
| 2026-05-04 07:24 | -37.04408 | 146.41075 | 36697 ft | 438 kts | 244° |
| 2026-05-04 07:25 | -37.06096 | 146.37901 | 36473 ft | 439 kts | 244° |
| 2026-05-04 07:26 | -37.18172 | 146.15053 | 30881 ft | 458 kts | 245° |
| 2026-05-04 07:27 | -37.19925 | 146.11740 | 29446 ft | 456 kts | 245° |
| 2026-05-04 07:27 | -37.21683 | 146.08409 | 27827 ft | 457 kts | 245° |
| 2026-05-04 07:27 | -37.23430 | 146.05105 | 26894 ft | 452 kts | 244° |
| 2026-05-04 07:27 | -37.25148 | 146.01848 | 25748 ft | 443 kts | 244° |
| 2026-05-04 07:28 | -37.26834 | 145.98641 | 24624 ft | 441 kts | 244° |
| 2026-05-04 07:28 | -37.28521 | 145.95403 | 23529 ft | 445 kts | 243° |
| 2026-05-04 07:28 | -37.30223 | 145.92133 | 22372 ft | 446 kts | 243° |
| 2026-05-04 07:28 | -37.31891 | 145.88939 | 21529 ft | 441 kts | 242° |
| 2026-05-04 07:29 | -37.33571 | 145.85734 | 20641 ft | 438 kts | 242° |
| 2026-05-04 07:29 | -37.35242 | 145.82550 | 19770 ft | 434 kts | 242° |
| 2026-05-04 07:29 | -37.36897 | 145.79399 | 18903 ft | 431 kts | 241° |
| 2026-05-04 07:29 | -37.38543 | 145.76267 | 18028 ft | 427 kts | 240° |
| 2026-05-04 07:30 | -37.40171 | 145.73167 | 17141 ft | 422 kts | 240° |
| 2026-05-04 07:30 | -37.41776 | 145.70108 | 16299 ft | 416 kts | 240° |
| 2026-05-04 07:30 | -37.43351 | 145.67096 | 15491 ft | 410 kts | 240° |
| 2026-05-04 07:30 | -37.44905 | 145.64113 | 14731 ft | 404 kts | 240° |
| 2026-05-04 07:31 | -37.46467 | 145.61222 | 14054 ft | 398 kts | 239° |
| 2026-05-04 07:31 | -37.48081 | 145.58397 | 13286 ft | 396 kts | 238° |
| 2026-05-04 07:33 | -37.58451 | 145.40820 | 10761 ft | 305 kts | 240° |
| 2026-05-04 07:33 | -37.59675 | 145.38697 | 10638 ft | 294 kts | 240° |
| 2026-05-04 07:33 | -37.60861 | 145.36638 | 10434 ft | 287 kts | 240° |
| 2026-05-04 07:33 | -37.62006 | 145.34649 | 10193 ft | 273 kts | 240° |
| 2026-05-04 07:34 | -37.63094 | 145.32769 | 9961 ft | 258 kts | 241° |
| 2026-05-04 07:34 | -37.64119 | 145.31003 | 9834 ft | 243 kts | 241° |
| 2026-05-04 07:34 | -37.65110 | 145.29286 | 9704 ft | 235 kts | 242° |
| 2026-05-04 07:34 | -37.66047 | 145.27652 | 9562 ft | 232 kts | 242° |
| 2026-05-04 07:35 | -37.66984 | 145.26009 | 9429 ft | 230 kts | 242° |
| 2026-05-04 07:35 | -37.67916 | 145.24373 | 9305 ft | 229 kts | 242° |
| 2026-05-04 07:35 | -37.68845 | 145.22749 | 9172 ft | 228 kts | 242° |
| 2026-05-04 07:35 | -37.69789 | 145.21102 | 8929 ft | 229 kts | 242° |
| 2026-05-04 07:36 | -37.70731 | 145.19459 | 8496 ft | 234 kts | 242° |
| 2026-05-04 07:36 | -37.71674 | 145.17822 | 8321 ft | 228 kts | 242° |
| 2026-05-04 07:38 | -37.78811 | 145.07622 | 6613 ft | 249 kts | 197° |
| 2026-05-04 07:38 | -37.80558 | 145.07341 | 6366 ft | 251 kts | 192° |
| 2026-05-04 07:38 | -37.82295 | 145.07138 | 6120 ft | 250 kts | 192° |
| 2026-05-04 07:38 | -37.84029 | 145.06954 | 5857 ft | 250 kts | 192° |
| 2026-05-04 07:39 | -37.85757 | 145.06769 | 5608 ft | 249 kts | 192° |
| 2026-05-04 07:39 | -37.87462 | 145.06493 | 5343 ft | 242 kts | 205° |
| 2026-05-04 07:39 | -37.88889 | 145.05559 | 5153 ft | 224 kts | 230° |
| 2026-05-04 07:39 | -37.89836 | 145.04084 | 5020 ft | 211 kts | 252° |
| 2026-05-04 07:40 | -37.90243 | 145.02369 | 4771 ft | 198 kts | 273° |
| 2026-05-04 07:40 | -37.90139 | 145.00716 | 4648 ft | 182 kts | 290° |
| 2026-05-04 07:40 | -37.89647 | 144.99304 | 4518 ft | 171 kts | 304° |
| 2026-05-04 07:40 | -37.89023 | 144.98082 | 4388 ft | 158 kts | 304° |
| 2026-05-04 07:41 | -37.88447 | 144.96931 | 4115 ft | 153 kts | 304° |
| 2026-05-04 07:41 | -37.87867 | 144.95783 | 3713 ft | 155 kts | 304° |
| 2026-05-04 07:41 | -37.87288 | 144.94632 | 3360 ft | 155 kts | 305° |
| 2026-05-04 07:41 | -37.86722 | 144.93506 | 3143 ft | 148 kts | 305° |
| 2026-05-04 07:42 | -37.86179 | 144.92404 | 2937 ft | 152 kts | 304° |
| 2026-05-04 07:42 | -37.85616 | 144.91244 | 2748 ft | 151 kts | 304° |
| 2026-05-04 07:42 | -37.85080 | 144.90130 | 2613 ft | 150 kts | 305° |
| 2026-05-04 07:42 | -37.84542 | 144.89008 | 2476 ft | 149 kts | 305° |
| 2026-05-04 07:43 | -37.84012 | 144.87909 | 2460 ft | 148 kts | 308° |
| 2026-05-04 07:43 | -37.83236 | 144.87019 | 2478 ft | 154 kts | 329° |
| 2026-05-04 07:43 | -37.82219 | 144.86557 | 2493 ft | 159 kts | 346° |
| 2026-05-04 07:43 | -37.81102 | 144.86485 | 2503 ft | 161 kts | 352° |
| 2026-05-04 07:44 | -37.80002 | 144.86349 | 2462 ft | 154 kts | 345° |
| 2026-05-04 07:44 | -37.79006 | 144.86118 | 2376 ft | 137 kts | 344° |
| 2026-05-04 07:44 | -37.78152 | 144.85920 | 2354 ft | 111 kts | 344° |
| 2026-05-04 07:44 | -37.77367 | 144.85773 | 2173 ft | 114 kts | 345° |
| 2026-05-04 07:45 | -37.76583 | 144.85596 | 1957 ft | 118 kts | 346° |
| 2026-05-04 07:45 | -37.75723 | 144.85439 | 1769 ft | 129 kts | 346° |
| 2026-05-04 07:45 | -37.75122 | 144.85311 | 1580 ft | 132 kts | 347° |
| 2026-05-04 07:45 | -37.74214 | 144.85151 | 1375 ft | 130 kts | 349° |
| 2026-05-04 07:46 | -37.73317 | 144.84982 | 1151 ft | 127 kts | 349° |
| 2026-05-04 07:46 | -37.72444 | 144.84801 | 1023 ft | 125 kts | 351° |
| 2026-05-04 07:46 | -37.71579 | 144.84634 | 876 ft | 126 kts | 351° |
| 2026-05-04 07:46 | -37.70709 | 144.84478 | 800 ft | 130 kts | 353° |
| 2026-05-04 07:47 | -37.69824 | 144.84311 | 654 ft | 130 kts | 352° |
| 2026-05-04 07:47 | -37.68924 | 144.84157 | 466 ft | 133 kts | 353° |
| 2026-05-04 07:47 | -37.68044 | 144.83997 | 356 ft | 111 kts | 352° |
| 2026-05-04 07:49 | -37.66821 | 144.83985 | 391 ft | 0 kts | 159° |
| 2026-05-04 07:54 | -37.66840 | 144.83991 | 391 ft | 6 kts | 168° |
| 2026-05-04 07:55 | -37.66900 | 144.84003 | 388 ft | 11 kts | 172° |
| 2026-05-04 07:55 | -37.66987 | 144.84019 | 386 ft | 14 kts | 172° |
| 2026-05-04 07:55 | -37.67096 | 144.84040 | 382 ft | 17 kts | 171° |
| 2026-05-04 07:55 | -37.67200 | 144.84059 | 379 ft | 15 kts | 172° |
| 2026-05-04 07:56 | -37.67303 | 144.84079 | 376 ft | 16 kts | 171° |
| 2026-05-04 07:56 | -37.67394 | 144.84096 | 374 ft | 7 kts | 172° |
| 2026-05-04 07:56 | -37.67427 | 144.84102 | 373 ft | 5 kts | 172° |
| 2026-05-04 07:56 | -37.67431 | 144.84102 | 373 ft | 0 kts | 172° |
| 2026-05-04 08:03 | -37.67441 | 144.84104 | 373 ft | 4 kts | 172° |
| 2026-05-04 08:03 | -37.67484 | 144.84128 | 372 ft | 9 kts | 137° |
| 2026-05-04 08:04 | -37.67497 | 144.84202 | 373 ft | 9 kts | 84° |
| 2026-05-04 08:04 | -37.67489 | 144.84282 | 375 ft | 10 kts | 81° |
| 2026-05-04 08:04 | -37.67478 | 144.84374 | 377 ft | 11 kts | 81° |
| 2026-05-04 08:04 | -37.67465 | 144.84482 | 378 ft | 13 kts | 82° |
| 2026-05-04 08:05 | -37.67451 | 144.84598 | 380 ft | 13 kts | 81° |
| 2026-05-04 08:05 | -37.67452 | 144.84678 | 381 ft | 7 kts | 137° |
| 2026-05-04 08:05 | -37.67507 | 144.84690 | 380 ft | 6 kts | 171° |
| 2026-05-04 08:05 | -37.67530 | 144.84694 | 379 ft | 3 kts | 172° |
| 2026-05-04 08:06 | -37.67538 | 144.84696 | 379 ft | 1 kts | 172° |
| 2026-05-04 08:06 | -37.67539 | 144.84696 | 379 ft | 0 kts | 172° |
| 2026-05-04 08:12 | -37.67540 | 144.84696 | 379 ft | 0 kts | 172° |
| 2026-05-04 08:21 | -37.67539 | 144.84696 | 379 ft | 0 kts | 172° |